Time;durP1;ratioP1;P1;durP2;ratioP2;P2;SDS_P1;SDS_P2;PMS_P1;PMS_P2;Temp;Humidity;BMP_temperature;BMP_pressure;BME280_temperature;BME280_humidity;BME280_pressure;Samples;Min_cycle;Max_cycle;Signal;HPM_P1;HPM_P2
2022/11/13 00:02:19;;;;;;;6.22;5.62;;;;;;;11.28;56.72;103219.37;1648973;85;21040;-51
2022/11/13 00:05:06;;;;;;;6.65;5.95;;;;;;;11.31;56.76;103223.31;1660100;85;21052;-51
2022/11/13 00:07:51;;;;;;;7.00;5.95;;;;;;;11.25;56.90;103223.23;1609024;88;21058;-51
2022/11/13 00:10:36;;;;;;;7.05;6.35;;;;;;;11.31;56.94;103228.53;1601939;88;21138;-51
2022/11/13 00:13:22;;;;;;;8.28;6.60;;;;;;;11.34;57.11;103224.67;1662724;85;21068;-51
2022/11/13 00:16:16;;;;;;;7.97;6.97;;;;;;;11.37;57.20;103220.80;1660022;85;21523;-51
2022/11/13 00:19:01;;;;;;;7.87;6.87;;;;;;;11.40;57.37;103223.88;1652485;85;21099;-51
2022/11/13 00:21:47;;;;;;;8.05;7.22;;;;;;;11.43;57.46;103220.02;1661393;85;21070;-51
2022/11/13 00:24:32;;;;;;;9.10;7.67;;;;;;;11.45;57.53;103221.80;1657769;85;21539;-51
2022/11/13 00:27:17;;;;;;;10.08;8.48;;;;;;;11.46;57.82;103218.75;1646021;85;21708;-51
2022/11/13 00:30:04;;;;;;;11.60;9.60;;;;;;;11.48;58.02;103221.83;1655971;85;21056;-53
2022/11/13 00:32:49;;;;;;;10.48;8.65;;;;;;;11.53;58.08;103223.63;1665697;85;21079;-51
2022/11/13 00:35:34;;;;;;;11.05;9.43;;;;;;;11.56;58.04;103217.16;1655173;85;21080;-51
2022/11/13 00:38:20;;;;;;;11.33;10.15;;;;;;;11.58;58.01;103214.14;1655970;85;21568;-52
2022/11/13 00:41:05;;;;;;;10.50;9.40;;;;;;;11.59;58.04;103213.27;1638370;86;21024;-51
2022/11/13 00:43:50;;;;;;;10.98;9.38;;;;;;;11.61;57.99;103207.64;1651249;85;21052;-51
2022/11/13 00:46:35;;;;;;;12.23;9.65;;;;;;;11.62;57.90;103202.89;1646701;85;21079;-51
2022/11/13 00:49:20;;;;;;;10.95;9.23;;;;;;;11.64;57.85;103204.67;1651705;85;21103;-51
2022/11/13 00:52:06;;;;;;;10.95;9.85;;;;;;;11.64;57.83;103195.97;1652273;85;21048;-51
2022/11/13 00:54:51;;;;;;;11.08;9.83;;;;;;;11.59;58.04;103197.62;1667992;85;21539;-51
2022/11/13 00:57:36;;;;;;;11.57;9.85;;;;;;;11.62;58.07;103195.07;1653279;85;21583;-51
2022/11/13 01:00:21;;;;;;;11.75;10.55;;;;;;;11.67;57.80;103188.20;1655049;85;21095;-51
2022/11/13 01:03:06;;;;;;;10.78;9.75;;;;;;;11.66;57.81;103190.34;1659939;85;21024;-51
2022/11/13 01:05:52;;;;;;;12.35;11.00;;;;;;;11.66;57.88;103182.52;1661139;85;21059;-51
2022/11/13 01:08:37;;;;;;;12.37;10.63;;;;;;;11.64;57.87;103182.92;1646229;85;21071;-51
2022/11/13 01:11:25;;;;;;;10.82;9.68;;;;;;;11.63;57.88;103184.65;1654324;85;21096;-51
2022/11/13 01:14:11;;;;;;;12.50;11.22;;;;;;;11.63;57.96;103182.05;1656242;85;21582;-51
2022/11/13 01:16:57;;;;;;;12.58;11.30;;;;;;;11.63;57.89;103181.16;1651564;85;21056;-51
2022/11/13 01:19:42;;;;;;;13.18;11.78;;;;;;;11.64;57.81;103175.10;1655806;85;21103;-51
2022/11/13 01:22:27;;;;;;;13.60;10.98;;;;;;;11.64;57.79;103165.97;1599124;88;21073;-51
2022/11/13 01:25:13;;;;;;;12.20;10.55;;;;;;;11.63;57.73;103170.73;1600719;87;21069;-51
2022/11/13 01:27:58;;;;;;;11.25;10.13;;;;;;;11.62;57.67;103165.08;1616234;86;21121;-51
2022/11/13 01:30:43;;;;;;;12.28;10.20;;;;;;;11.60;57.70;103166.80;1625570;87;21070;-52
2022/11/13 01:33:29;;;;;;;12.00;10.70;;;;;;;11.59;57.58;103153.30;1611404;88;21068;-51
2022/11/13 01:36:20;;;;;;;12.28;10.45;;;;;;;11.60;57.48;103160.28;1614033;87;21085;-51
2022/11/13 01:39:05;;;;;;;12.30;10.85;;;;;;;11.58;57.47;103154.17;1569375;90;21109;-51
2022/11/13 01:41:50;;;;;;;12.50;9.80;;;;;;;11.58;57.35;103148.95;1567397;90;22880;-51
2022/11/13 01:47:44;;;;;;;12.10;10.88;;;;;;;11.54;57.30;103147.17;1488420;95;21157;-51
2022/11/13 01:50:30;;;;;;;12.85;10.90;;;;;;;11.53;57.47;103150.61;1459509;98;21607;-51
2022/11/13 01:53:16;;;;;;;12.98;11.03;;;;;;;11.50;57.45;103140.16;1453238;98;21115;-51
2022/11/13 01:56:00;;;;;;;12.40;10.95;;;;;;;11.48;57.38;103141.00;1449756;98;21107;-51
2022/11/13 01:59:05;;;;;;;13.98;10.82;;;;;;;11.47;57.50;103141.00;1490027;95;21694;-51
2022/11/13 02:01:51;;;;;;;13.32;11.93;;;;;;;11.45;57.55;103140.98;1481822;95;21097;-51
2022/11/13 02:04:36;;;;;;;14.13;12.28;;;;;;;11.44;57.60;103140.52;1481789;96;21673;-51
2022/11/13 02:07:21;;;;;;;15.35;12.60;;;;;;;11.45;57.64;103144.90;1487992;96;21091;-51
2022/11/13 02:10:08;;;;;;;14.95;12.15;;;;;;;11.44;57.61;103141.83;1482803;96;21232;-51
2022/11/13 02:12:53;;;;;;;13.90;12.37;;;;;;;11.44;57.70;103138.34;1485005;96;21111;-51
2022/11/13 02:15:39;;;;;;;15.28;12.25;;;;;;;11.43;57.78;103136.19;1485677;96;21097;-54
2022/11/13 02:18:25;;;;;;;15.40;13.20;;;;;;;11.44;57.89;103135.73;1483771;96;21086;-52
2022/11/13 02:21:24;;;;;;;17.67;13.20;;;;;;;11.43;57.94;103132.27;1487987;96;21135;-51
2022/11/13 02:24:27;;;;;;;15.95;12.90;;;;;;;11.44;58.07;103135.31;1483104;96;21109;-51
2022/11/13 02:27:20;;;;;;;17.07;13.68;;;;;;;11.45;58.27;103137.08;1491579;96;21149;-50
2022/11/13 02:30:21;;;;;;;16.85;13.15;;;;;;;11.45;58.36;103130.56;1482915;94;21114;-51
2022/11/13 02:33:28;;;;;;;17.52;14.18;;;;;;;11.46;58.35;103137.50;1468074;96;21098;-51
2022/11/13 02:36:15;;;;;;;16.15;13.25;;;;;;;11.45;58.43;103138.37;1478048;96;21089;-51
2022/11/13 02:39:04;;;;;;;15.40;13.25;;;;;;;11.44;58.41;103140.52;1482929;96;21112;-51
2022/11/13 02:41:49;;;;;;;15.70;13.15;;;;;;;11.42;58.45;103146.14;1484884;95;21105;-51
2022/11/13 02:44:34;;;;;;;16.17;12.90;;;;;;;11.43;58.48;103150.94;1510764;92;21656;-51
2022/11/13 02:47:19;;;;;;;15.23;12.75;;;;;;;11.42;58.42;103148.75;1561765;91;21081;-51
2022/11/13 02:50:06;;;;;;;13.32;11.85;;;;;;;11.43;58.32;103145.30;1602829;89;21066;-51
2022/11/13 02:52:52;;;;;;;15.75;12.78;;;;;;;11.40;58.24;103141.34;1603790;88;21131;-50
2022/11/13 02:55:36;;;;;;;14.87;12.50;;;;;;;11.34;57.92;103141.27;1603036;88;21057;-51
2022/11/13 02:58:22;;;;;;;13.80;12.35;;;;;;;11.23;57.98;103149.81;1604666;88;21619;-52
2022/11/13 03:01:07;;;;;;;11.25;10.05;;;;;;;11.08;58.23;103147.87;1603566;88;21022;-51
2022/11/13 03:03:53;;;;;;;14.63;11.85;;;;;;;11.00;58.40;103154.70;1596167;89;21059;-51
2022/11/13 03:06:40;;;;;;;13.03;11.60;;;;;;;10.95;58.57;103140.72;1602410;89;21055;-51
2022/11/13 03:09:25;;;;;;;12.70;11.35;;;;;;;10.97;58.62;103144.64;1604561;88;21045;-51
2022/11/13 03:12:10;;;;;;;14.98;12.93;;;;;;;10.95;58.80;103138.53;1602743;88;21119;-51
2022/11/13 03:14:57;;;;;;;18.62;12.10;;;;;;;10.96;58.78;103133.37;1601983;88;21105;-52
2022/11/13 03:17:42;;;;;;;12.88;11.45;;;;;;;10.97;58.69;103137.70;1601656;88;21042;-51
2022/11/13 03:20:28;;;;;;;14.47;12.85;;;;;;;10.98;58.62;103138.17;1604627;88;21113;-51
2022/11/13 03:23:13;;;;;;;15.58;12.90;;;;;;;10.95;58.84;103131.60;1603744;88;21059;-51
2022/11/13 03:26:08;;;;;;;14.95;12.98;;;;;;;10.95;58.93;103130.30;1570812;90;21164;-51
2022/11/13 03:28:53;;;;;;;15.35;13.65;;;;;;;10.96;59.18;103128.58;1639988;86;21575;-52
2022/11/13 03:31:39;;;;;;;18.80;13.13;;;;;;;11.01;59.20;103128.20;1663076;85;21094;-51
2022/11/13 03:34:25;;;;;;;17.32;13.30;;;;;;;11.06;59.05;103122.22;1657058;85;21182;-51
2022/11/13 03:37:10;;;;;;;17.75;13.93;;;;;;;11.10;58.92;103124.02;1655587;85;21520;-52
2022/11/13 03:39:55;;;;;;;17.90;14.53;;;;;;;11.11;59.02;103128.34;1645603;85;21538;-51
2022/11/13 03:42:41;;;;;;;15.13;12.85;;;;;;;11.14;59.11;103127.10;1654008;85;21071;-51
2022/11/13 03:45:25;;;;;;;14.70;12.45;;;;;;;11.15;59.10;103122.74;1654934;85;21540;-51
2022/11/13 03:48:10;;;;;;;13.88;12.07;;;;;;;11.11;59.09;103125.75;1661261;85;21061;-52
2022/11/13 03:50:57;;;;;;;13.70;12.25;;;;;;;11.05;59.16;103120.45;1652921;85;21103;-51
2022/11/13 03:53:41;;;;;;;13.48;12.07;;;;;;;11.02;59.27;103119.55;1594396;88;21550;-51
2022/11/13 03:56:27;;;;;;;16.52;12.65;;;;;;;11.00;59.24;103116.92;1672380;85;21580;-51
2022/11/13 03:59:13;;;;;;;14.07;11.78;;;;;;;10.97;59.17;103122.08;1652315;85;21059;-51
2022/11/13 04:01:57;;;;;;;13.88;12.47;;;;;;;10.92;59.32;103118.52;1649150;85;21079;-51
2022/11/13 04:04:43;;;;;;;15.28;12.78;;;;;;;10.87;59.51;103120.20;1654887;85;21024;-52
2022/11/13 04:07:29;;;;;;;15.13;12.47;;;;;;;10.86;59.49;103123.64;1660420;85;21060;-52
2022/11/13 04:10:14;;;;;;;13.85;12.35;;;;;;;10.84;59.48;103124.50;1658158;85;21040;-51
2022/11/13 04:13:01;;;;;;;15.32;12.68;;;;;;;10.82;59.53;103120.55;1657789;85;21060;-51
2022/11/13 04:15:47;;;;;;;16.23;13.10;;;;;;;10.84;59.39;103124.05;1658674;85;21063;-51
2022/11/13 04:18:32;;;;;;;15.28;12.58;;;;;;;10.85;59.31;103123.20;1660210;85;21504;-51
2022/11/13 04:21:17;;;;;;;13.60;12.18;;;;;;;10.85;59.32;103119.30;1643254;85;21021;-51
2022/11/13 04:24:03;;;;;;;16.00;13.50;;;;;;;10.89;59.11;103130.21;1656040;85;21387;-51
2022/11/13 04:26:48;;;;;;;15.68;13.58;;;;;;;10.89;59.25;103128.91;1645701;86;21104;-51
2022/11/13 04:29:33;;;;;;;16.55;13.65;;;;;;;10.89;59.17;103136.73;1663035;85;21540;-51
2022/11/13 04:32:18;;;;;;;16.23;14.10;;;;;;;10.88;59.24;103136.71;1664999;85;21046;-51
2022/11/13 04:35:06;;;;;;;17.15;13.58;;;;;;;10.81;59.40;103134.86;1659515;85;21111;-51
2022/11/13 04:37:52;;;;;;;16.00;13.98;;;;;;;10.78;59.55;103129.62;1622568;86;21058;-51
2022/11/13 04:40:39;;;;;;;15.85;13.45;;;;;;;10.79;59.54;103137.45;1598189;87;21046;-51
2022/11/13 04:43:24;;;;;;;16.55;13.90;;;;;;;10.78;59.51;103129.62;1614298;88;21053;-51
2022/11/13 04:46:09;;;;;;;17.37;14.00;;;;;;;10.75;59.56;103129.14;1632731;87;21079;-50
2022/11/13 04:48:54;;;;;;;16.82;14.00;;;;;;;10.77;59.61;103128.73;1614837;87;21041;-51
2022/11/13 04:51:39;;;;;;;15.55;13.90;;;;;;;10.80;59.52;103130.52;1618556;88;21577;-50
2022/11/13 04:54:25;;;;;;;15.80;13.68;;;;;;;10.83;59.44;103137.94;1610551;87;21077;-51
2022/11/13 04:57:10;;;;;;;16.77;13.98;;;;;;;10.89;59.31;103139.33;1620743;87;21100;-51
2022/11/13 04:59:55;;;;;;;14.90;13.30;;;;;;;10.93;59.09;103137.22;1611651;87;21037;-51
2022/11/13 05:02:41;;;;;;;16.12;13.90;;;;;;;10.90;59.18;103135.86;1616045;87;21092;-51
2022/11/13 05:05:26;;;;;;;16.00;13.53;;;;;;;10.84;59.52;103127.10;1607444;87;21117;-51
2022/11/13 05:08:12;;;;;;;15.45;13.80;;;;;;;10.81;59.62;103128.34;1604200;88;21053;-50
2022/11/13 05:10:57;;;;;;;16.45;14.30;;;;;;;10.82;59.68;103132.27;1613144;87;21125;-50
2022/11/13 05:13:42;;;;;;;15.13;13.35;;;;;;;10.86;59.49;103128.84;1626763;87;21556;-50
2022/11/13 05:16:27;;;;;;;14.98;13.40;;;;;;;10.88;59.42;103121.94;1624387;87;21524;-51
2022/11/13 05:19:13;;;;;;;16.00;14.30;;;;;;;10.87;59.51;103121.92;1621744;87;21100;-51
2022/11/13 05:21:58;;;;;;;14.50;12.93;;;;;;;10.90;59.50;103118.08;1613842;87;21105;-50
2022/11/13 05:24:43;;;;;;;16.37;14.60;;;;;;;10.95;59.29;103118.58;1618968;87;21124;-50
2022/11/13 05:27:29;;;;;;;16.25;14.45;;;;;;;11.01;59.05;103122.98;1586002;88;21556;-52
2022/11/13 05:30:15;;;;;;;16.95;14.23;;;;;;;11.08;58.95;103115.30;1594833;88;21164;-51
2022/11/13 05:33:00;;;;;;;16.97;14.75;;;;;;;11.14;58.94;103119.28;1611869;88;21069;-50
2022/11/13 05:35:46;;;;;;;19.40;15.23;;;;;;;11.22;58.92;103123.28;1627293;87;21097;-50
2022/11/13 05:38:31;;;;;;;17.90;15.50;;;;;;;11.29;58.82;103122.07;1609642;87;21580;-50
2022/11/13 05:41:20;;;;;;;16.25;14.38;;;;;;;11.37;58.96;103130.86;1612966;87;21053;-50
2022/11/13 05:44:06;;;;;;;18.45;15.78;;;;;;;11.46;58.87;103127.08;1628585;87;21053;-50
2022/11/13 05:46:52;;;;;;;17.05;13.98;;;;;;;11.54;58.57;103131.52;1624420;87;21564;-50
2022/11/13 05:49:38;;;;;;;16.12;14.00;;;;;;;11.60;58.12;103130.29;1613817;88;21076;-50
2022/11/13 05:52:24;;;;;;;16.82;14.13;;;;;;;11.63;57.69;103130.30;1610592;87;21073;-51
2022/11/13 05:55:08;;;;;;;15.40;12.98;;;;;;;11.66;57.58;103134.27;1602863;88;21076;-51
2022/11/13 05:57:54;;;;;;;15.80;13.30;;;;;;;11.70;57.63;103134.78;1615821;87;21045;-51
2022/11/13 06:00:39;;;;;;;14.63;13.03;;;;;;;11.78;57.35;103146.17;1618178;87;21126;-51
2022/11/13 06:03:25;;;;;;;14.93;12.73;;;;;;;11.84;57.29;103138.41;1620221;87;21128;-51
2022/11/13 06:06:13;;;;;;;14.68;12.78;;;;;;;11.91;57.10;103141.55;1614010;88;21046;-51
2022/11/13 06:09:03;;;;;;;14.25;12.78;;;;;;;11.96;56.96;103138.53;1611203;88;21041;-51
2022/11/13 06:11:48;;;;;;;14.75;12.55;;;;;;;12.01;56.83;103138.17;1615535;87;21033;-51
2022/11/13 06:14:35;;;;;;;13.18;11.78;;;;;;;12.07;56.69;103141.72;1620240;87;21102;-50
2022/11/13 06:17:20;;;;;;;13.68;12.28;;;;;;;12.14;56.46;103137.41;1612623;87;21045;-51
2022/11/13 06:20:07;;;;;;;12.73;11.38;;;;;;;12.18;56.26;103134.84;1611269;88;21065;-51
2022/11/13 06:22:53;;;;;;;13.38;11.97;;;;;;;12.17;55.94;103137.45;1615198;88;21117;-51
2022/11/13 06:25:39;;;;;;;12.98;11.68;;;;;;;12.10;55.95;103130.41;1611926;87;21543;-50
2022/11/13 06:28:24;;;;;;;14.40;12.15;;;;;;;12.01;56.17;103129.04;1610646;88;21156;-51
2022/11/13 06:31:14;;;;;;;13.65;12.07;;;;;;;11.98;56.43;103131.59;1603639;88;21144;-51
2022/11/13 06:34:00;;;;;;;13.22;11.88;;;;;;;12.00;56.57;103124.66;1591707;89;21103;-50
2022/11/13 06:36:46;;;;;;;14.18;12.23;;;;;;;12.02;56.72;103118.61;1601488;89;21546;-51
2022/11/13 06:39:31;;;;;;;14.18;12.68;;;;;;;12.03;56.79;103119.48;1584223;89;22867;-50
2022/11/13 06:42:16;;;;;;;17.87;13.22;;;;;;;12.03;57.05;103112.97;1614007;88;21176;-51
2022/11/13 06:45:04;;;;;;;16.35;13.48;;;;;;;12.06;57.04;103115.59;1604439;88;21026;-51
2022/11/13 06:47:49;;;;;;;15.65;13.68;;;;;;;12.09;57.21;103120.85;1606550;88;21205;-51
2022/11/13 06:50:34;;;;;;;15.83;12.98;;;;;;;12.09;57.19;103110.41;1616713;88;22218;-50
2022/11/13 06:53:19;;;;;;;15.98;13.68;;;;;;;12.05;57.30;103113.85;1611320;88;21586;-51
2022/11/13 06:56:06;;;;;;;15.58;13.98;;;;;;;12.05;57.56;103110.82;1619569;88;21114;-51
2022/11/13 06:58:52;;;;;;;16.35;13.95;;;;;;;12.11;57.73;103112.60;1613695;88;21106;-50
2022/11/13 07:01:38;;;;;;;17.73;14.58;;;;;;;12.17;57.78;103106.13;1616063;88;21087;-51
2022/11/13 07:04:22;;;;;;;15.08;13.50;;;;;;;12.24;58.01;103112.72;1607430;88;21114;-51
2022/11/13 07:07:07;;;;;;;15.90;13.28;;;;;;;12.30;58.10;103105.39;1631490;88;21066;-51
2022/11/13 07:09:52;;;;;;;14.73;12.60;;;;;;;12.39;58.15;103108.05;1622637;88;21058;-51
2022/11/13 07:12:40;;;;;;;16.62;14.20;;;;;;;12.46;58.31;103098.12;1609844;88;21047;-51
2022/11/13 07:15:27;;;;;;;16.25;13.80;;;;;;;12.54;58.31;103089.91;1600876;89;21110;-51
2022/11/13 07:18:12;;;;;;;16.73;14.93;;;;;;;12.62;58.22;103086.91;1646692;86;21569;-51
2022/11/13 07:20:57;;;;;;;16.23;14.53;;;;;;;12.65;58.20;103080.38;1645297;86;21061;-51
2022/11/13 07:23:47;;;;;;;18.42;14.93;;;;;;;12.72;57.94;103084.80;1647674;86;21529;-51
2022/11/13 07:26:32;;;;;;;16.85;14.40;;;;;;;12.72;58.03;103084.80;1597535;89;21054;-50
2022/11/13 07:29:17;;;;;;;16.50;14.80;;;;;;;12.75;58.09;103084.83;1585536;89;21148;-50
2022/11/13 07:32:02;;;;;;;16.17;14.28;;;;;;;12.81;58.00;103082.25;1661773;85;21100;-51
2022/11/13 07:34:47;;;;;;;17.60;14.70;;;;;;;12.84;58.07;103087.48;1656690;85;21055;-50
2022/11/13 07:37:32;;;;;;;16.07;14.35;;;;;;;12.89;58.19;103087.09;1660003;85;21087;-50
2022/11/13 07:40:17;;;;;;;16.80;15.00;;;;;;;12.97;58.21;103089.31;1612963;88;21066;-52
2022/11/13 07:43:02;;;;;;;18.10;14.90;;;;;;;12.99;58.34;103081.47;1659674;85;21087;-51
2022/11/13 07:45:53;;;;;;;17.45;15.55;;;;;;;13.04;58.08;103091.10;1663740;85;21075;-50
2022/11/13 07:48:35;;;;;;;18.75;15.75;;;;;;;13.03;58.20;103086.72;1659329;85;21055;-51
2022/11/13 07:51:20;;;;;;;18.42;14.98;;;;;;;13.06;58.41;103088.06;1651375;85;21096;-51
2022/11/13 07:54:06;;;;;;;18.67;16.02;;;;;;;13.08;58.31;103094.17;1647488;85;21087;-50
2022/11/13 07:56:51;;;;;;;17.32;15.25;;;;;;;13.10;58.54;103089.40;1655377;86;21172;-51
2022/11/13 07:59:36;;;;;;;38.90;34.78;;;;;;;13.13;58.69;103090.73;1598028;85;28933;-50
2022/11/13 08:02:21;;;;;;;20.25;17.00;;;;;;;13.20;58.75;103088.57;1658992;85;21561;-52
2022/11/13 08:05:07;;;;;;;16.87;15.08;;;;;;;13.31;58.28;103086.89;1665495;85;21055;-51
2022/11/13 08:07:52;;;;;;;23.73;18.32;;;;;;;13.35;58.16;103084.72;1657600;85;21048;-50
2022/11/13 08:10:37;;;;;;;18.10;16.20;;;;;;;13.39;58.19;103079.94;1656470;85;21108;-51
2022/11/13 08:13:23;;;;;;;18.15;15.95;;;;;;;13.47;58.25;103082.14;1656408;85;21042;-50
2022/11/13 08:16:08;;;;;;;19.75;15.88;;;;;;;13.56;58.14;103075.19;1667028;85;21032;-50
2022/11/13 08:18:53;;;;;;;18.82;15.48;;;;;;;13.67;58.08;103076.52;1666213;85;21071;-50
2022/11/13 08:21:38;;;;;;;18.85;16.23;;;;;;;13.78;57.86;103070.89;1655936;85;21583;-52
2022/11/13 08:24:24;;;;;;;25.50;18.12;;;;;;;13.84;57.55;103072.20;1652527;85;21064;-50
2022/11/13 08:27:09;;;;;;;23.20;17.40;;;;;;;13.86;57.55;103078.31;1657559;85;21055;-51
2022/11/13 08:29:54;;;;;;;16.55;14.73;;;;;;;13.90;57.51;103078.76;1651307;85;21114;-51
2022/11/13 08:32:39;;;;;;;27.75;20.50;;;;;;;13.99;57.44;103074.86;1666913;85;21138;-51
2022/11/13 08:35:24;;;;;;;17.52;15.50;;;;;;;14.07;57.16;103078.34;1612092;88;21060;-51
2022/11/13 08:38:09;;;;;;;15.60;14.00;;;;;;;14.09;56.81;103072.67;1618220;88;21559;-52
2022/11/13 08:40:59;;;;;;;22.02;18.10;;;;;;;14.11;56.89;103065.69;1618736;88;21536;-51
2022/11/13 08:43:44;;;;;;;17.55;15.75;;;;;;;14.13;56.57;103066.99;1617965;88;21568;-50
2022/11/13 08:46:29;;;;;;;14.85;12.85;;;;;;;14.10;56.70;103061.31;1607876;88;21112;-50
2022/11/13 08:49:15;;;;;;;15.15;12.47;;;;;;;14.09;56.56;103058.27;1608902;88;21593;-50
2022/11/13 08:52:00;;;;;;;14.50;12.13;;;;;;;14.08;56.51;103059.13;1609703;88;21065;-51
2022/11/13 08:54:46;;;;;;;14.87;12.45;;;;;;;14.04;56.64;103053.46;1615624;88;21564;-50
2022/11/13 08:57:31;;;;;;;15.88;13.03;;;;;;;14.04;56.57;103060.00;1612442;88;21114;-50
2022/11/13 09:00:17;;;;;;;15.35;13.75;;;;;;;14.02;56.47;103052.59;1609670;88;21045;-51
2022/11/13 09:03:02;;;;;;;15.35;12.85;;;;;;;13.98;56.29;103050.84;1612960;88;21120;-50
2022/11/13 09:05:48;;;;;;;13.18;11.78;;;;;;;13.96;56.37;103050.40;1613293;88;21061;-50
2022/11/13 09:08:34;;;;;;;13.35;11.22;;;;;;;13.92;56.19;103043.41;1601747;88;21077;-51
2022/11/13 09:11:19;;;;;;;28.32;20.70;;;;;;;13.91;56.41;103043.84;1607473;87;21119;-50
2022/11/13 09:14:05;;;;;;;16.17;13.98;;;;;;;13.90;56.39;103040.80;1621639;87;21092;-50
2022/11/13 09:16:50;;;;;;;14.78;13.28;;;;;;;13.92;56.46;103031.21;1609943;88;21053;-51
2022/11/13 09:19:35;;;;;;;19.82;14.90;;;;;;;13.95;56.46;103028.58;1615615;87;21552;-51
2022/11/13 09:22:20;;;;;;;14.93;13.35;;;;;;;14.04;56.43;103023.36;1608323;88;21069;-50
2022/11/13 09:25:07;;;;;;;15.05;12.98;;;;;;;14.13;56.13;103018.55;1612713;88;21093;-51
2022/11/13 09:27:59;;;;;;;14.40;12.90;;;;;;;14.20;55.51;103023.78;1603829;88;21081;-51
2022/11/13 09:30:44;;;;;;;20.27;15.10;;;;;;;14.19;55.04;103018.12;1541364;92;21107;-51
2022/11/13 09:33:30;;;;;;;18.67;14.18;;;;;;;14.13;55.05;103020.75;1540860;92;21085;-52
2022/11/13 09:36:16;;;;;;;17.65;14.30;;;;;;;14.10;55.18;103014.19;1544314;92;21088;-50
2022/11/13 09:39:02;;;;;;;13.98;12.47;;;;;;;14.10;55.34;103015.50;1549971;91;21625;-49
2022/11/13 09:41:59;;;;;;;15.60;13.22;;;;;;;14.14;55.23;103010.69;1501372;94;21617;-50
2022/11/13 09:44:51;;;;;;;18.05;15.55;;;;;;;14.18;55.05;103012.44;1512193;93;21175;-50
2022/11/13 09:47:42;;;;;;;16.42;12.55;;;;;;;14.22;55.18;103007.62;1496735;95;21663;-51
2022/11/13 09:50:29;;;;;;;14.60;12.90;;;;;;;14.29;54.87;102998.94;1541945;92;21586;-51
2022/11/13 09:53:14;;;;;;;16.93;13.10;;;;;;;14.35;54.79;102998.92;1551110;92;21101;-51
2022/11/13 09:56:04;;;;;;;14.63;13.00;;;;;;;14.43;54.78;102997.59;1544109;92;21164;-51
2022/11/13 09:59:15;;;;;;;14.75;13.25;;;;;;;14.49;54.71;102993.22;1508947;93;21567;-50
2022/11/13 10:02:32;;;;;;;13.20;11.83;;;;;;;14.55;54.52;102993.63;1514017;93;21125;-50
2022/11/13 10:05:29;;;;;;;14.30;12.30;;;;;;;14.61;54.29;102991.86;1517123;93;21199;-50
2022/11/13 10:08:31;;;;;;;13.18;11.88;;;;;;;14.66;54.14;102999.72;1499790;94;21121;-50
2022/11/13 10:11:46;;;;;;;14.60;13.10;;;;;;;14.66;54.29;102991.43;1477015;94;21348;-50
2022/11/13 10:14:44;;;;;;;15.83;13.05;;;;;;;14.65;54.16;102993.59;1471408;96;21133;-50
2022/11/13 10:17:45;;;;;;;14.23;12.55;;;;;;;14.68;54.32;102995.34;1471376;96;21108;-51
2022/11/13 10:20:42;;;;;;;17.00;13.95;;;;;;;14.69;54.41;102992.71;1459772;96;21178;-51
2022/11/13 10:23:32;;;;;;;16.77;13.65;;;;;;;14.72;54.47;102989.22;1437697;97;21116;-50
2022/11/13 10:26:20;;;;;;;16.35;14.23;;;;;;;14.75;54.55;102985.72;1421826;94;21158;-50
2022/11/13 10:29:18;;;;;;;16.10;13.75;;;;;;;14.78;54.47;102988.31;1512691;93;21101;-50
2022/11/13 10:32:28;;;;;;;17.30;14.78;;;;;;;14.82;54.56;102986.98;1499140;94;21598;-51
2022/11/13 10:35:44;;;;;;;19.40;16.45;;;;;;;14.84;54.56;102983.08;1483073;94;21701;-50
2022/11/13 10:38:46;;;;;;;18.50;14.18;;;;;;;14.84;54.77;102980.45;1495230;94;21104;-50
2022/11/13 10:41:31;;;;;;;17.37;14.10;;;;;;;14.85;55.02;102980.44;1512682;93;21630;-50
2022/11/13 10:44:26;;;;;;;17.32;14.78;;;;;;;14.86;55.23;102982.16;1512718;93;21102;-51
2022/11/13 10:47:17;;;;;;;16.52;14.63;;;;;;;14.88;55.15;102976.94;1511573;93;21141;-50
2022/11/13 10:50:28;;;;;;;18.20;16.03;;;;;;;14.87;54.93;102977.80;1566500;90;21111;-51
2022/11/13 10:53:15;;;;;;;23.10;19.32;;;;;;;14.89;55.13;102972.99;1572684;90;21168;-50
2022/11/13 10:56:00;;;;;;;18.17;14.75;;;;;;;14.96;55.12;102971.22;1558383;91;21112;-51
2022/11/13 10:59:17;;;;;;;17.05;14.55;;;;;;;15.03;54.89;102962.42;1598258;88;21098;-51
2022/11/13 11:02:24;;;;;;;18.17;14.90;;;;;;;15.10;55.04;102958.48;1589335;88;21661;-50
2022/11/13 11:05:22;;;;;;;19.82;15.00;;;;;;;15.18;54.89;102955.80;1595949;88;21034;-50
2022/11/13 11:08:09;;;;;;;20.32;15.93;;;;;;;15.23;54.83;102947.45;1598448;89;21177;-51
2022/11/13 11:14:33;;;;;;;18.85;16.12;;;;;;;15.26;54.76;102948.75;1531925;92;21099;-50
2022/11/13 11:17:20;;;;;;;16.32;14.45;;;;;;;15.32;54.86;102948.71;1549091;90;21069;-51
2022/11/13 11:20:33;;;;;;;17.67;15.13;;;;;;;15.36;54.77;102937.31;1540213;90;21110;-51
2022/11/13 11:23:30;;;;;;;18.35;14.23;;;;;;;15.38;54.62;102936.42;1564991;89;21131;-51
2022/11/13 11:26:45;;;;;;;16.60;14.90;;;;;;;15.44;54.63;102932.91;1583767;89;21107;-51
2022/11/13 11:29:49;;;;;;;19.98;14.70;;;;;;;15.47;54.59;102932.91;1526147;92;21090;-50
2022/11/13 11:33:02;;;;;;;19.27;15.60;;;;;;;15.50;54.57;102929.39;1524719;93;22711;-50
2022/11/13 11:35:53;;;;;;;19.30;15.60;;;;;;;15.51;54.70;102920.63;1496699;95;21548;-50
2022/11/13 11:38:52;;;;;;;21.48;15.60;;;;;;;15.53;54.66;102924.98;1454198;97;21118;-51
2022/11/13 11:41:46;;;;;;;17.65;15.08;;;;;;;15.56;54.63;102919.70;1402400;102;21137;-50
2022/11/13 11:45:03;;;;;;;16.77;14.53;;;;;;;15.58;54.52;102917.92;1359183;104;21160;-50
2022/11/13 11:47:49;;;;;;;18.70;14.73;;;;;;;15.58;54.47;102916.62;1359059;104;21174;-50
2022/11/13 11:51:13;;;;;;;17.10;13.10;;;;;;;15.55;54.59;102911.41;1366422;104;21138;-50
2022/11/13 11:54:30;;;;;;;16.25;13.22;;;;;;;15.56;54.60;102915.76;1376667;103;21163;-50
2022/11/13 11:57:46;;;;;;;14.75;13.15;;;;;;;15.58;54.83;102916.62;1362501;104;21178;-50
2022/11/13 12:00:32;;;;;;;10.88;9.50;;;;;;;15.60;54.88;102914.85;1348810;105;21189;-50
2022/11/13 12:03:43;;;;;;;11.30;9.15;;;;;;;15.61;54.91;102910.05;1374219;103;21136;-49
2022/11/13 12:06:52;;;;;;;9.83;8.83;;;;;;;15.61;54.70;102901.30;1358793;104;21211;-50
2022/11/13 12:09:54;;;;;;;10.25;8.23;;;;;;;15.56;54.51;102911.83;1358597;106;21662;-50
2022/11/13 12:12:51;;;;;;;9.65;8.60;;;;;;;15.50;54.58;102910.56;1348676;105;21190;-50
2022/11/13 12:16:02;;;;;;;9.23;8.05;;;;;;;15.45;54.81;102911.06;1359201;104;21212;-50
2022/11/13 12:19:05;;;;;;;8.23;7.03;;;;;;;15.39;55.01;102913.70;1363704;104;21164;-50
2022/11/13 12:22:22;;;;;;;10.38;7.30;;;;;;;15.35;55.10;102905.42;1306013;109;21196;-51
2022/11/13 12:25:27;;;;;;;7.72;6.87;;;;;;;15.31;55.11;102905.02;1292824;110;21198;-50
2022/11/13 12:28:22;;;;;;;7.53;6.72;;;;;;;15.26;55.35;102906.78;1306336;108;21130;-50
2022/11/13 12:31:40;;;;;;;9.03;7.50;;;;;;;15.20;55.59;102912.08;1311567;107;21243;-50
2022/11/13 12:34:40;;;;;;;7.10;6.40;;;;;;;15.15;55.83;102911.22;1327294;106;21268;-51
2022/11/13 12:37:31;;;;;;;9.58;7.17;;;;;;;15.13;55.83;102911.23;1312213;109;21286;-50
2022/11/13 12:40:39;;;;;;;7.35;6.62;;;;;;;15.08;56.08;102912.16;1331300;108;21732;-50
2022/11/13 12:43:35;;;;;;;8.35;7.42;;;;;;;15.03;56.12;102907.37;1342928;104;21221;-50
2022/11/13 12:46:20;;;;;;;8.45;7.05;;;;;;;14.99;56.25;102913.52;1367578;103;21191;-50
2022/11/13 12:49:26;;;;;;;8.78;6.62;;;;;;;14.96;56.38;102914.86;1364929;103;21237;-50
2022/11/13 12:52:23;;;;;;;9.28;6.95;;;;;;;14.93;56.53;102914.86;1365735;102;21628;-50
2022/11/13 12:55:25;;;;;;;7.08;6.37;;;;;;;14.90;56.71;102916.20;1367856;102;21160;-51
2022/11/13 12:58:30;;;;;;;7.40;6.58;;;;;;;14.90;56.84;102910.96;1349143;105;21236;-50